sensor_id;sensor_type;location;lat;lon;timestamp;pressure;altitude;pressure_sealevel;temperature
63113;BMP280;49206;48.020;21.378;2022-10-17T00:00:15;101986.28;;;8.75
63113;BMP280;49206;48.020;21.378;2022-10-17T00:01:18;101986.28;;;8.75
63113;BMP280;49206;48.020;21.378;2022-10-17T00:02:20;101984.38;;;8.81
63113;BMP280;49206;48.020;21.378;2022-10-17T00:03:23;101991.75;;;8.79
63113;BMP280;49206;48.020;21.378;2022-10-17T00:04:25;101989.66;;;8.81
63113;BMP280;49206;48.020;21.378;2022-10-17T00:05:28;101989.88;;;8.84
63113;BMP280;49206;48.020;21.378;2022-10-17T00:06:30;101986.19;;;8.85
63113;BMP280;49206;48.020;21.378;2022-10-17T00:07:33;101996.25;;;8.78
63113;BMP280;49206;48.020;21.378;2022-10-17T00:08:36;101985.72;;;8.78
63113;BMP280;49206;48.020;21.378;2022-10-17T00:09:42;101987.78;;;8.81
63113;BMP280;49206;48.020;21.378;2022-10-17T00:10:45;101984.38;;;8.81
63113;BMP280;49206;48.020;21.378;2022-10-17T00:11:55;101989.94;;;8.79
63113;BMP280;49206;48.020;21.378;2022-10-17T00:12:57;101989.13;;;8.79
63113;BMP280;49206;48.020;21.378;2022-10-17T00:14:00;101983.44;;;8.72
63113;BMP280;49206;48.020;21.378;2022-10-17T00:15:05;101984.19;;;8.72
63113;BMP280;49206;48.020;21.378;2022-10-17T00:16:07;101988.69;;;8.72
63113;BMP280;49206;48.020;21.378;2022-10-17T00:17:10;101978.94;;;8.72
63113;BMP280;49206;48.020;21.378;2022-10-17T00:18:12;101987.63;;;8.73
63113;BMP280;49206;48.020;21.378;2022-10-17T00:19:33;101982.13;;;8.69
63113;BMP280;49206;48.020;21.378;2022-10-17T00:20:35;101986.81;;;8.72
63113;BMP280;49206;48.020;21.378;2022-10-17T00:21:37;101986.59;;;8.69
63113;BMP280;49206;48.020;21.378;2022-10-17T00:22:40;101991.13;;;8.68
63113;BMP280;49206;48.020;21.378;2022-10-17T00:23:42;101994.50;;;8.69
63113;BMP280;49206;48.020;21.378;2022-10-17T00:24:45;101989.53;;;8.67
63113;BMP280;49206;48.020;21.378;2022-10-17T00:25:56;101991.66;;;8.65
63113;BMP280;49206;48.020;21.378;2022-10-17T00:26:59;101995.41;;;8.59
63113;BMP280;49206;48.020;21.378;2022-10-17T00:28:02;101999.09;;;8.58
63113;BMP280;49206;48.020;21.378;2022-10-17T00:29:04;101992.75;;;8.59
63113;BMP280;49206;48.020;21.378;2022-10-17T00:30:10;101992.03;;;8.54
63113;BMP280;49206;48.020;21.378;2022-10-17T00:31:14;101994.38;;;8.55
63113;BMP280;49206;48.020;21.378;2022-10-17T00:32:18;101993.81;;;8.58
63113;BMP280;49206;48.020;21.378;2022-10-17T00:33:20;101998.78;;;8.60
63113;BMP280;49206;48.020;21.378;2022-10-17T00:34:23;101992.75;;;8.59
63113;BMP280;49206;48.020;21.378;2022-10-17T00:35:26;102001.69;;;8.63
63113;BMP280;49206;48.020;21.378;2022-10-17T00:36:28;102002.22;;;8.60
63113;BMP280;49206;48.020;21.378;2022-10-17T00:37:31;102003.53;;;8.63
63113;BMP280;49206;48.020;21.378;2022-10-17T00:38:35;101996.44;;;8.63
63113;BMP280;49206;48.020;21.378;2022-10-17T00:39:38;102004.31;;;8.63
63113;BMP280;49206;48.020;21.378;2022-10-17T00:40:40;102006.75;;;8.55
63113;BMP280;49206;48.020;21.378;2022-10-17T00:41:42;102010.19;;;8.55
63113;BMP280;49206;48.020;21.378;2022-10-17T00:42:45;102004.88;;;8.60
63113;BMP280;49206;48.020;21.378;2022-10-17T00:44:01;102005.63;;;8.61
63113;BMP280;49206;48.020;21.378;2022-10-17T00:45:28;102003.84;;;8.56
63113;BMP280;49206;48.020;21.378;2022-10-17T00:46:36;102000.47;;;8.51
63113;BMP280;49206;48.020;21.378;2022-10-17T00:47:39;102002.91;;;8.42
63113;BMP280;49206;48.020;21.378;2022-10-17T00:48:42;102007.91;;;8.44
63113;BMP280;49206;48.020;21.378;2022-10-17T00:49:44;102002.88;;;8.47
63113;BMP280;49206;48.020;21.378;2022-10-17T00:50:48;102005.72;;;8.51
63113;BMP280;49206;48.020;21.378;2022-10-17T00:52:15;102000.72;;;8.49
63113;BMP280;49206;48.020;21.378;2022-10-17T00:53:18;102003.34;;;8.49
63113;BMP280;49206;48.020;21.378;2022-10-17T00:54:29;102006.84;;;8.45
63113;BMP280;49206;48.020;21.378;2022-10-17T00:55:36;102011.25;;;8.49
63113;BMP280;49206;48.020;21.378;2022-10-17T00:56:40;102001.25;;;8.51
63113;BMP280;49206;48.020;21.378;2022-10-17T00:57:44;102003.94;;;8.46
63113;BMP280;49206;48.020;21.378;2022-10-17T00:58:47;102010.78;;;8.47
63113;BMP280;49206;48.020;21.378;2022-10-17T00:59:51;102009.66;;;8.53
63113;BMP280;49206;48.020;21.378;2022-10-17T01:00:55;102009.97;;;8.47
63113;BMP280;49206;48.020;21.378;2022-10-17T01:02:06;102014.75;;;8.45
63113;BMP280;49206;48.020;21.378;2022-10-17T01:03:09;102009.75;;;8.43
63113;BMP280;49206;48.020;21.378;2022-10-17T01:04:11;102010.81;;;8.42
63113;BMP280;49206;48.020;21.378;2022-10-17T01:05:15;102010.53;;;8.44
63113;BMP280;49206;48.020;21.378;2022-10-17T01:06:17;102011.63;;;8.43
63113;BMP280;49206;48.020;21.378;2022-10-17T01:07:20;102007.66;;;8.40
63113;BMP280;49206;48.020;21.378;2022-10-17T01:08:24;102013.44;;;8.42
63113;BMP280;49206;48.020;21.378;2022-10-17T01:09:26;102005.34;;;8.39
63113;BMP280;49206;48.020;21.378;2022-10-17T01:10:34;102006.69;;;8.31
63113;BMP280;49206;48.020;21.378;2022-10-17T01:12:01;102010.63;;;8.34
63113;BMP280;49206;48.020;21.378;2022-10-17T01:13:23;102017.22;;;8.31
63113;BMP280;49206;48.020;21.378;2022-10-17T01:17:14;102009.34;;;8.26
63113;BMP280;49206;48.020;21.378;2022-10-17T01:21:37;102006.16;;;8.29
63113;BMP280;49206;48.020;21.378;2022-10-17T01:22:51;102019.31;;;8.29
63113;BMP280;49206;48.020;21.378;2022-10-17T01:26:27;102006.41;;;8.33
63113;BMP280;49206;48.020;21.378;2022-10-17T01:27:46;102007.28;;;8.23
63113;BMP280;49206;48.020;21.378;2022-10-17T01:30:25;102004.38;;;8.25
63113;BMP280;49206;48.020;21.378;2022-10-17T01:31:42;101995.75;;;8.15
63113;BMP280;49206;48.020;21.378;2022-10-17T01:32:48;101997.09;;;8.12
63113;BMP280;49206;48.020;21.378;2022-10-17T01:34:06;101998.06;;;8.21
63113;BMP280;49206;48.020;21.378;2022-10-17T01:35:21;102000.94;;;8.24
63113;BMP280;49206;48.020;21.378;2022-10-17T01:37:46;102000.97;;;8.19
63113;BMP280;49206;48.020;21.378;2022-10-17T01:38:53;101998.31;;;8.24
63113;BMP280;49206;48.020;21.378;2022-10-17T01:44:03;102003.84;;;8.23
63113;BMP280;49206;48.020;21.378;2022-10-17T01:45:18;102000.44;;;8.23
63113;BMP280;49206;48.020;21.378;2022-10-17T01:46:34;102000.44;;;8.23
63113;BMP280;49206;48.020;21.378;2022-10-17T01:47:38;102005.75;;;8.13
63113;BMP280;49206;48.020;21.378;2022-10-17T01:48:43;102004.16;;;8.17
63113;BMP280;49206;48.020;21.378;2022-10-17T01:49:50;102003.66;;;8.15
63113;BMP280;49206;48.020;21.378;2022-10-17T01:51:00;102000.47;;;8.18
63113;BMP280;49206;48.020;21.378;2022-10-17T01:52:11;102002.63;;;8.11
63113;BMP280;49206;48.020;21.378;2022-10-17T01:53:21;102004.72;;;8.14
63113;BMP280;49206;48.020;21.378;2022-10-17T01:54:30;101998.41;;;8.10
63113;BMP280;49206;48.020;21.378;2022-10-17T01:55:37;102005.81;;;8.08
63113;BMP280;49206;48.020;21.378;2022-10-17T01:56:43;102001.09;;;8.05
63113;BMP280;49206;48.020;21.378;2022-10-17T01:57:50;102003.69;;;8.10
63113;BMP280;49206;48.020;21.378;2022-10-17T01:58:57;102003.69;;;8.10
63113;BMP280;49206;48.020;21.378;2022-10-17T02:00:05;102000.03;;;8.06
63113;BMP280;49206;48.020;21.378;2022-10-17T02:01:14;101999.03;;;7.97
63113;BMP280;49206;48.020;21.378;2022-10-17T02:02:17;102002.22;;;7.89
63113;BMP280;49206;48.020;21.378;2022-10-17T02:03:22;102005.38;;;7.91
63113;BMP280;49206;48.020;21.378;2022-10-17T02:04:25;102013.47;;;7.99
63113;BMP280;49206;48.020;21.378;2022-10-17T02:05:30;102006.63;;;8.03
63113;BMP280;49206;48.020;21.378;2022-10-17T02:06:35;102007.13;;;8.05
63113;BMP280;49206;48.020;21.378;2022-10-17T02:07:42;102015.03;;;8.00
63113;BMP280;49206;48.020;21.378;2022-10-17T02:08:46;102003.19;;;8.03
63113;BMP280;49206;48.020;21.378;2022-10-17T02:09:49;102010.03;;;8.04
63113;BMP280;49206;48.020;21.378;2022-10-17T02:11:02;102011.63;;;8.05
63113;BMP280;49206;48.020;21.378;2022-10-17T02:16:21;102014.25;;;8.05
63113;BMP280;49206;48.020;21.378;2022-10-17T02:20:42;102020.63;;;7.94
63113;BMP280;49206;48.020;21.378;2022-10-17T02:22:00;102012.75;;;7.89
63113;BMP280;49206;48.020;21.378;2022-10-17T02:25:37;102027.50;;;7.85
63113;BMP280;49206;48.020;21.378;2022-10-17T02:29:17;102024.84;;;7.90
63113;BMP280;49206;48.020;21.378;2022-10-17T02:32:03;102026.69;;;7.94
63113;BMP280;49206;48.020;21.378;2022-10-17T02:33:14;102027.50;;;7.85
63113;BMP280;49206;48.020;21.378;2022-10-17T02:34:42;102026.19;;;7.87
63113;BMP280;49206;48.020;21.378;2022-10-17T02:35:51;102020.94;;;7.87
63113;BMP280;49206;48.020;21.378;2022-10-17T02:36:57;102030.94;;;7.85
63113;BMP280;49206;48.020;21.378;2022-10-17T02:38:02;102025.44;;;7.82
63113;BMP280;49206;48.020;21.378;2022-10-17T02:39:07;102026.22;;;7.77
63113;BMP280;49206;48.020;21.378;2022-10-17T02:40:20;102019.94;;;7.68
63113;BMP280;49206;48.020;21.378;2022-10-17T02:41:25;102020.19;;;7.77
63113;BMP280;49206;48.020;21.378;2022-10-17T02:42:33;102022.31;;;7.75
63113;BMP280;49206;48.020;21.378;2022-10-17T02:43:37;102022.81;;;7.82
63113;BMP280;49206;48.020;21.378;2022-10-17T02:44:42;102020.47;;;7.75
63113;BMP280;49206;48.020;21.378;2022-10-17T02:45:48;102022.00;;;7.81
63113;BMP280;49206;48.020;21.378;2022-10-17T02:46:56;102023.31;;;7.84
63113;BMP280;49206;48.020;21.378;2022-10-17T02:48:37;102021.75;;;7.83
63113;BMP280;49206;48.020;21.378;2022-10-17T02:49:46;102029.09;;;7.81
63113;BMP280;49206;48.020;21.378;2022-10-17T02:52:20;102029.88;;;7.86
63113;BMP280;49206;48.020;21.378;2022-10-17T02:53:28;102036.72;;;7.82
63113;BMP280;49206;48.020;21.378;2022-10-17T02:54:38;102034.91;;;7.78
63113;BMP280;49206;48.020;21.378;2022-10-17T02:55:49;102033.03;;;7.78
63113;BMP280;49206;48.020;21.378;2022-10-17T02:57:28;102029.91;;;7.81
63113;BMP280;49206;48.020;21.378;2022-10-17T02:58:24;102035.66;;;7.83
63113;BMP280;49206;48.020;21.378;2022-10-17T02:59:29;102031.19;;;7.84
63113;BMP280;49206;48.020;21.378;2022-10-17T03:00:32;102035.97;;;7.77
63113;BMP280;49206;48.020;21.378;2022-10-17T03:01:35;102042.53;;;7.74
63113;BMP280;49206;48.020;21.378;2022-10-17T03:02:49;102035.41;;;7.80
63113;BMP280;49206;48.020;21.378;2022-10-17T03:04:04;102027.25;;;7.81
63113;BMP280;49206;48.020;21.378;2022-10-17T03:05:07;102037.28;;;7.79
63113;BMP280;49206;48.020;21.378;2022-10-17T03:06:11;102038.59;;;7.77
63113;BMP280;49206;48.020;21.378;2022-10-17T03:07:14;102042.78;;;7.78
63113;BMP280;49206;48.020;21.378;2022-10-17T03:08:18;102035.47;;;7.75
63113;BMP280;49206;48.020;21.378;2022-10-17T03:09:20;102035.22;;;7.71
63113;BMP280;49206;48.020;21.378;2022-10-17T03:10:22;102040.50;;;7.61
63113;BMP280;49206;48.020;21.378;2022-10-17T03:11:25;102042.09;;;7.62
63113;BMP280;49206;48.020;21.378;2022-10-17T03:12:27;102036.78;;;7.67
63113;BMP280;49206;48.020;21.378;2022-10-17T03:13:29;102039.41;;;7.67
63113;BMP280;49206;48.020;21.378;2022-10-17T03:14:36;102041.03;;;7.63
63113;BMP280;49206;48.020;21.378;2022-10-17T03:15:38;102033.41;;;7.62
63113;BMP280;49206;48.020;21.378;2022-10-17T03:16:40;102035.25;;;7.66
63113;BMP280;49206;48.020;21.378;2022-10-17T03:17:42;102042.84;;;7.63
63113;BMP280;49206;48.020;21.378;2022-10-17T03:18:50;102045.78;;;7.61
63113;BMP280;49206;48.020;21.378;2022-10-17T03:19:53;102035.50;;;7.65
63113;BMP280;49206;48.020;21.378;2022-10-17T03:20:55;102038.13;;;7.65
63113;BMP280;49206;48.020;21.378;2022-10-17T03:21:57;102032.34;;;7.63
63113;BMP280;49206;48.020;21.378;2022-10-17T03:23:00;102032.09;;;7.59
63113;BMP280;49206;48.020;21.378;2022-10-17T03:24:03;102030.50;;;7.63
63113;BMP280;49206;48.020;21.378;2022-10-17T03:25:06;102030.78;;;7.57
63113;BMP280;49206;48.020;21.378;2022-10-17T03:26:10;102034.19;;;7.62
63113;BMP280;49206;48.020;21.378;2022-10-17T03:27:13;102035.50;;;7.60
63113;BMP280;49206;48.020;21.378;2022-10-17T03:28:15;102033.97;;;7.54
63113;BMP280;49206;48.020;21.378;2022-10-17T03:29:17;102037.09;;;7.56
63113;BMP280;49206;48.020;21.378;2022-10-17T03:30:21;102041.28;;;7.57
63113;BMP280;49206;48.020;21.378;2022-10-17T03:31:24;102036.31;;;7.55
63113;BMP280;49206;48.020;21.378;2022-10-17T03:32:26;102044.47;;;7.49
63113;BMP280;49206;48.020;21.378;2022-10-17T03:33:29;102036.84;;;7.57
63113;BMP280;49206;48.020;21.378;2022-10-17T03:34:31;102039.72;;;7.61
63113;BMP280;49206;48.020;21.378;2022-10-17T03:35:37;102041.84;;;7.54
63113;BMP280;49206;48.020;21.378;2022-10-17T03:36:42;102041.28;;;7.57
63113;BMP280;49206;48.020;21.378;2022-10-17T03:37:45;102041.84;;;7.59
63113;BMP280;49206;48.020;21.378;2022-10-17T03:38:52;102042.88;;;7.58
63113;BMP280;49206;48.020;21.378;2022-10-17T03:39:55;102050.00;;;7.52
63113;BMP280;49206;48.020;21.378;2022-10-17T03:40:57;102056.84;;;7.53
63113;BMP280;49206;48.020;21.378;2022-10-17T03:42:00;102060.75;;;7.56
63113;BMP280;49206;48.020;21.378;2022-10-17T03:43:03;102057.91;;;7.52
63113;BMP280;49206;48.020;21.378;2022-10-17T03:44:06;102068.69;;;7.51
63113;BMP280;49206;48.020;21.378;2022-10-17T03:45:08;102061.84;;;7.50
63113;BMP280;49206;48.020;21.378;2022-10-17T03:46:11;102069.44;;;7.46
63113;BMP280;49206;48.020;21.378;2022-10-17T03:47:13;102060.78;;;7.51
63113;BMP280;49206;48.020;21.378;2022-10-17T03:48:16;102059.75;;;7.47
63113;BMP280;49206;48.020;21.378;2022-10-17T03:49:18;102059.75;;;7.52
63113;BMP280;49206;48.020;21.378;2022-10-17T03:50:20;102071.31;;;7.46
63113;BMP280;49206;48.020;21.378;2022-10-17T03:51:23;102062.16;;;7.43
63113;BMP280;49206;48.020;21.378;2022-10-17T03:52:30;102073.69;;;7.47
63113;BMP280;49206;48.020;21.378;2022-10-17T03:53:33;102072.34;;;7.45
63113;BMP280;49206;48.020;21.378;2022-10-17T03:54:35;102072.66;;;7.38
63113;BMP280;49206;48.020;21.378;2022-10-17T03:55:38;102073.44;;;7.44
63113;BMP280;49206;48.020;21.378;2022-10-17T03:56:41;102073.94;;;7.46
63113;BMP280;49206;48.020;21.378;2022-10-17T03:57:47;102072.91;;;7.42
63113;BMP280;49206;48.020;21.378;2022-10-17T03:58:53;102078.94;;;7.42
63113;BMP280;49206;48.020;21.378;2022-10-17T03:59:56;102070.53;;;7.35
63113;BMP280;49206;48.020;21.378;2022-10-17T04:01:03;102068.19;;;7.39
63113;BMP280;49206;48.020;21.378;2022-10-17T04:02:06;102079.47;;;7.34
63113;BMP280;49206;48.020;21.378;2022-10-17T04:03:09;102072.66;;;7.38
63113;BMP280;49206;48.020;21.378;2022-10-17T04:04:18;102073.16;;;7.35
63113;BMP280;49206;48.020;21.378;2022-10-17T04:05:20;102069.75;;;7.35
63113;BMP280;49206;48.020;21.378;2022-10-17T04:06:23;102068.19;;;7.39
63113;BMP280;49206;48.020;21.378;2022-10-17T04:07:26;102069.22;;;7.38
63113;BMP280;49206;48.020;21.378;2022-10-17T04:08:29;102079.22;;;7.41
63113;BMP280;49206;48.020;21.378;2022-10-17T04:09:46;102073.16;;;7.40
63113;BMP280;49206;48.020;21.378;2022-10-17T04:10:57;102076.31;;;7.37
63113;BMP280;49206;48.020;21.378;2022-10-17T04:12:00;102073.44;;;7.39
63113;BMP280;49206;48.020;21.378;2022-10-17T04:13:04;102077.13;;;7.38
63113;BMP280;49206;48.020;21.378;2022-10-17T04:14:08;102083.19;;;7.38
63113;BMP280;49206;48.020;21.378;2022-10-17T04:15:12;102083.94;;;7.34
63113;BMP280;49206;48.020;21.378;2022-10-17T04:16:16;102088.13;;;7.35
63113;BMP280;49206;48.020;21.378;2022-10-17T04:17:32;102087.66;;;7.33
63113;BMP280;49206;48.020;21.378;2022-10-17T04:18:40;102089.75;;;7.36
63113;BMP280;49206;48.020;21.378;2022-10-17T04:19:43;102086.09;;;7.32
63113;BMP280;49206;48.020;21.378;2022-10-17T04:20:48;102088.97;;;7.30
63113;BMP280;49206;48.020;21.378;2022-10-17T04:21:51;102086.31;;;7.35
63113;BMP280;49206;48.020;21.378;2022-10-17T04:22:54;102081.06;;;7.35
63113;BMP280;49206;48.020;21.378;2022-10-17T04:23:58;102085.00;;;7.38
63113;BMP280;49206;48.020;21.378;2022-10-17T04:25:30;102083.44;;;7.37
63113;BMP280;49206;48.020;21.378;2022-10-17T04:26:36;102084.50;;;7.36
63113;BMP280;49206;48.020;21.378;2022-10-17T04:27:39;102080.28;;;7.30
63113;BMP280;49206;48.020;21.378;2022-10-17T04:28:42;102080.28;;;7.30
63113;BMP280;49206;48.020;21.378;2022-10-17T04:29:44;102091.84;;;7.29
63113;BMP280;49206;48.020;21.378;2022-10-17T04:31:00;102091.56;;;7.35
63113;BMP280;49206;48.020;21.378;2022-10-17T04:32:09;102085.25;;;7.36
63113;BMP280;49206;48.020;21.378;2022-10-17T04:33:18;102083.69;;;7.35
63113;BMP280;49206;48.020;21.378;2022-10-17T04:34:20;102088.97;;;7.25
63113;BMP280;49206;48.020;21.378;2022-10-17T04:35:23;102087.13;;;7.26
63113;BMP280;49206;48.020;21.378;2022-10-17T04:36:33;102087.66;;;7.33
63113;BMP280;49206;48.020;21.378;2022-10-17T04:37:35;102090.28;;;7.33
63113;BMP280;49206;48.020;21.378;2022-10-17T04:38:44;102087.91;;;7.31
63113;BMP280;49206;48.020;21.378;2022-10-17T04:39:47;102081.59;;;7.27
63113;BMP280;49206;48.020;21.378;2022-10-17T04:40:49;102086.09;;;7.27
63113;BMP280;49206;48.020;21.378;2022-10-17T04:41:52;102088.44;;;7.28
63113;BMP280;49206;48.020;21.378;2022-10-17T04:42:55;102085.53;;;7.25
63113;BMP280;49206;48.020;21.378;2022-10-17T04:44:05;102089.47;;;7.22
63113;BMP280;49206;48.020;21.378;2022-10-17T04:45:11;102098.97;;;7.18
63113;BMP280;49206;48.020;21.378;2022-10-17T04:46:15;102096.88;;;7.20
63113;BMP280;49206;48.020;21.378;2022-10-17T04:47:18;102089.22;;;7.24
63113;BMP280;49206;48.020;21.378;2022-10-17T04:48:20;102094.75;;;7.27
63113;BMP280;49206;48.020;21.378;2022-10-17T04:49:23;102092.13;;;7.27
63113;BMP280;49206;48.020;21.378;2022-10-17T04:50:28;102094.47;;;7.24
63113;BMP280;49206;48.020;21.378;2022-10-17T04:51:51;102094.47;;;7.24
63113;BMP280;49206;48.020;21.378;2022-10-17T04:53:00;102107.13;;;7.27
63113;BMP280;49206;48.020;21.378;2022-10-17T04:54:03;102099.75;;;7.19
63113;BMP280;49206;48.020;21.378;2022-10-17T04:55:05;102104.47;;;7.27
63113;BMP280;49206;48.020;21.378;2022-10-17T04:56:17;102102.91;;;7.21
63113;BMP280;49206;48.020;21.378;2022-10-17T04:57:19;102105.53;;;7.21
63113;BMP280;49206;48.020;21.378;2022-10-17T04:58:49;102106.06;;;7.28
63113;BMP280;49206;48.020;21.378;2022-10-17T04:59:52;102110.00;;;7.30
63113;BMP280;49206;48.020;21.378;2022-10-17T05:01:19;102103.44;;;7.28
63113;BMP280;49206;48.020;21.378;2022-10-17T05:02:26;102110.25;;;7.29
63113;BMP280;49206;48.020;21.378;2022-10-17T05:03:29;102104.75;;;7.30
63113;BMP280;49206;48.020;21.378;2022-10-17T05:04:32;102103.13;;;7.34
63113;BMP280;49206;48.020;21.378;2022-10-17T05:05:38;102107.88;;;7.27
63113;BMP280;49206;48.020;21.378;2022-10-17T05:06:42;102106.56;;;7.30
63113;BMP280;49206;48.020;21.378;2022-10-17T05:07:58;102100.25;;;7.36
63113;BMP280;49206;48.020;21.378;2022-10-17T05:09:04;102107.88;;;7.32
63113;BMP280;49206;48.020;21.378;2022-10-17T05:10:07;102103.13;;;7.24
63113;BMP280;49206;48.020;21.378;2022-10-17T05:11:25;102109.44;;;7.28
63113;BMP280;49206;48.020;21.378;2022-10-17T05:12:27;102119.19;;;7.33
63113;BMP280;49206;48.020;21.378;2022-10-17T05:13:32;102113.41;;;7.36
63113;BMP280;49206;48.020;21.378;2022-10-17T05:14:34;102116.81;;;7.31
63113;BMP280;49206;48.020;21.378;2022-10-17T05:15:37;102116.03;;;7.21
63113;BMP280;49206;48.020;21.378;2022-10-17T05:16:39;102122.31;;;7.25
63113;BMP280;49206;48.020;21.378;2022-10-17T05:17:43;102116.84;;;7.16
63113;BMP280;49206;48.020;21.378;2022-10-17T05:18:53;102119.19;;;7.28
63113;BMP280;49206;48.020;21.378;2022-10-17T05:19:56;102114.44;;;7.30
63113;BMP280;49206;48.020;21.378;2022-10-17T05:20:58;102116.56;;;7.28
63113;BMP280;49206;48.020;21.378;2022-10-17T05:22:01;102117.06;;;7.25
63113;BMP280;49206;48.020;21.378;2022-10-17T05:23:03;102120.75;;;7.29
63113;BMP280;49206;48.020;21.378;2022-10-17T05:24:12;102123.41;;;7.29
63113;BMP280;49206;48.020;21.378;2022-10-17T05:25:14;102123.91;;;7.31
63113;BMP280;49206;48.020;21.378;2022-10-17T05:26:18;102129.16;;;7.36
63113;BMP280;49206;48.020;21.378;2022-10-17T05:27:21;102131.00;;;7.40
63113;BMP280;49206;48.020;21.378;2022-10-17T05:28:26;102136.22;;;7.50
63113;BMP280;49206;48.020;21.378;2022-10-17T05:29:34;102143.56;;;7.58
63113;BMP280;49206;48.020;21.378;2022-10-17T05:30:44;102139.13;;;7.54
63113;BMP280;49206;48.020;21.378;2022-10-17T05:31:46;102147.53;;;7.61
63113;BMP280;49206;48.020;21.378;2022-10-17T05:32:51;102150.66;;;7.68
63113;BMP280;49206;48.020;21.378;2022-10-17T05:33:55;102150.09;;;7.81
63113;BMP280;49206;48.020;21.378;2022-10-17T05:35:01;102149.94;;;8.20
63113;BMP280;49206;48.020;21.378;2022-10-17T05:36:06;102146.13;;;9.13
63113;BMP280;49206;48.020;21.378;2022-10-17T05:37:09;102149.09;;;10.24
63113;BMP280;49206;48.020;21.378;2022-10-17T05:38:12;102151.09;;;11.28
63113;BMP280;49206;48.020;21.378;2022-10-17T05:39:16;102150.50;;;11.71
63113;BMP280;49206;48.020;21.378;2022-10-17T05:40:22;102154.34;;;12.14
63113;BMP280;49206;48.020;21.378;2022-10-17T05:41:26;102154.72;;;12.43
63113;BMP280;49206;48.020;21.378;2022-10-17T05:42:29;102152.09;;;12.87
63113;BMP280;49206;48.020;21.378;2022-10-17T05:43:33;102158.75;;;13.06
63113;BMP280;49206;48.020;21.378;2022-10-17T05:44:35;102153.16;;;13.16
63113;BMP280;49206;48.020;21.378;2022-10-17T05:45:38;102154.97;;;13.07
63113;BMP280;49206;48.020;21.378;2022-10-17T05:46:47;102159.47;;;12.98
63113;BMP280;49206;48.020;21.378;2022-10-17T05:47:50;102153.38;;;12.68
63113;BMP280;49206;48.020;21.378;2022-10-17T05:48:53;102161.91;;;12.21
63113;BMP280;49206;48.020;21.378;2022-10-17T05:49:56;102160.91;;;11.41
63113;BMP280;49206;48.020;21.378;2022-10-17T05:51:07;102164.69;;;10.76
63113;BMP280;49206;48.020;21.378;2022-10-17T05:52:10;102162.81;;;10.45
63113;BMP280;49206;48.020;21.378;2022-10-17T05:53:31;102169.34;;;10.29
63113;BMP280;49206;48.020;21.378;2022-10-17T05:54:38;102164.69;;;10.26
63113;BMP280;49206;48.020;21.378;2022-10-17T05:55:40;102166.75;;;10.10
63113;BMP280;49206;48.020;21.378;2022-10-17T05:56:43;102168.97;;;9.98
63113;BMP280;49206;48.020;21.378;2022-10-17T05:57:45;102167.16;;;10.36
63113;BMP280;49206;48.020;21.378;2022-10-17T05:58:51;102167.31;;;10.26
63113;BMP280;49206;48.020;21.378;2022-10-17T06:00:08;102176.88;;;10.40
63113;BMP280;49206;48.020;21.378;2022-10-17T06:01:18;102179.94;;;10.47
63113;BMP280;49206;48.020;21.378;2022-10-17T06:02:20;102173.53;;;10.85
63113;BMP280;49206;48.020;21.378;2022-10-17T06:03:23;102176.28;;;11.12
63113;BMP280;49206;48.020;21.378;2022-10-17T06:04:27;102177.69;;;11.90
63113;BMP280;49206;48.020;21.378;2022-10-17T06:05:29;102176.38;;;13.11
63113;BMP280;49206;48.020;21.378;2022-10-17T06:06:35;102173.47;;;14.45
63113;BMP280;49206;48.020;21.378;2022-10-17T06:07:37;102182.13;;;15.54
63113;BMP280;49206;48.020;21.378;2022-10-17T06:08:41;102178.34;;;15.34
63113;BMP280;49206;48.020;21.378;2022-10-17T06:09:47;102181.13;;;14.55
63113;BMP280;49206;48.020;21.378;2022-10-17T06:10:49;102181.13;;;13.95
63113;BMP280;49206;48.020;21.378;2022-10-17T06:11:51;102186.78;;;14.02
63113;BMP280;49206;48.020;21.378;2022-10-17T06:12:54;102181.31;;;15.33
63113;BMP280;49206;48.020;21.378;2022-10-17T06:13:57;102188.88;;;16.33
63113;BMP280;49206;48.020;21.378;2022-10-17T06:15:02;102181.16;;;17.36
63113;BMP280;49206;48.020;21.378;2022-10-17T06:16:05;102181.72;;;17.53
63113;BMP280;49206;48.020;21.378;2022-10-17T06:17:08;102188.69;;;17.69
63113;BMP280;49206;48.020;21.378;2022-10-17T06:18:17;102195.09;;;18.35
63113;BMP280;49206;48.020;21.378;2022-10-17T06:19:20;102192.00;;;18.33
63113;BMP280;49206;48.020;21.378;2022-10-17T06:20:22;102200.00;;;18.06
63113;BMP280;49206;48.020;21.378;2022-10-17T06:21:26;102197.22;;;18.30
63113;BMP280;49206;48.020;21.378;2022-10-17T06:22:37;102196.22;;;17.79
63113;BMP280;49206;48.020;21.378;2022-10-17T06:23:47;102199.59;;;18.47
63113;BMP280;49206;48.020;21.378;2022-10-17T06:25:18;102210.69;;;17.27
63113;BMP280;49206;48.020;21.378;2022-10-17T06:26:21;102207.16;;;15.32
63113;BMP280;49206;48.020;21.378;2022-10-17T06:27:24;102221.19;;;14.50
63113;BMP280;49206;48.020;21.378;2022-10-17T06:28:26;102221.88;;;13.65
63113;BMP280;49206;48.020;21.378;2022-10-17T06:29:29;102216.25;;;13.28
63113;BMP280;49206;48.020;21.378;2022-10-17T06:30:31;102231.25;;;13.02
63113;BMP280;49206;48.020;21.378;2022-10-17T06:31:34;102221.56;;;12.76
63113;BMP280;49206;48.020;21.378;2022-10-17T06:32:37;102227.50;;;12.37
63113;BMP280;49206;48.020;21.378;2022-10-17T06:33:40;102231.81;;;12.47
63113;BMP280;49206;48.020;21.378;2022-10-17T06:34:42;102227.91;;;12.66
63113;BMP280;49206;48.020;21.378;2022-10-17T06:35:54;102232.69;;;13.08
63113;BMP280;49206;48.020;21.378;2022-10-17T06:36:58;102230.78;;;13.30
63113;BMP280;49206;48.020;21.378;2022-10-17T06:38:02;102230.06;;;13.94
63113;BMP280;49206;48.020;21.378;2022-10-17T06:39:07;102228.34;;;14.66
63113;BMP280;49206;48.020;21.378;2022-10-17T06:40:20;102233.19;;;14.47
63113;BMP280;49206;48.020;21.378;2022-10-17T06:41:23;102233.69;;;14.24
63113;BMP280;49206;48.020;21.378;2022-10-17T06:42:28;102227.16;;;15.09
63113;BMP280;49206;48.020;21.378;2022-10-17T06:43:43;102239.47;;;15.80
63113;BMP280;49206;48.020;21.378;2022-10-17T06:45:07;102236.50;;;15.82